createdAt,value
2023-04-21T04:28:27.911Z,14.93
2023-04-21T04:29:31.066Z,13.32
2023-04-21T04:30:34.165Z,15.32
2023-04-21T04:31:36.171Z,10.82
2023-04-21T04:32:39.689Z,10.60
2023-04-21T04:33:45.283Z,10.45
2023-04-21T04:34:48.742Z,12.85
2023-04-21T04:35:51.341Z,12.38
2023-04-21T04:36:53.985Z,11.77
2023-04-21T04:37:57.458Z,11.75
2023-04-21T04:38:59.740Z,15.13
2023-04-21T04:40:02.743Z,11.98
2023-04-21T04:41:05.167Z,12.43
2023-04-21T04:42:10.881Z,10.48
2023-04-21T04:43:21.606Z,10.50
2023-04-21T04:44:25.960Z,11.20
2023-04-21T04:45:33.060Z,9.25
2023-04-21T04:46:35.514Z,10.98
2023-04-21T04:47:38.248Z,11.05
2023-04-21T04:48:40.788Z,11.13
2023-04-21T04:49:42.975Z,12.15
2023-04-21T04:50:49.638Z,10.60
2023-04-21T04:51:51.781Z,11.43
2023-04-21T04:52:53.755Z,14.02
2023-04-21T04:53:56.918Z,10.57
2023-04-21T04:55:02.565Z,9.57
2023-04-21T04:56:06.507Z,9.75
2023-04-21T04:57:08.920Z,9.65
2023-04-21T04:58:26.298Z,9.57
2023-04-21T04:59:36.030Z,9.50
2023-04-21T05:00:41.836Z,12.52
2023-04-21T05:01:46.131Z,11.85
2023-04-21T05:02:50.233Z,11.70
2023-04-21T05:03:52.370Z,8.00
2023-04-21T05:04:59.297Z,12.85
2023-04-21T05:07:26.244Z,12.52
2023-04-21T05:08:43.488Z,9.55
2023-04-21T05:10:19.550Z,12.18
2023-04-21T05:11:23.190Z,10.90
2023-04-21T05:12:27.927Z,8.77
2023-04-21T05:13:29.939Z,10.13
2023-04-21T05:14:34.840Z,10.52
2023-04-21T05:16:03.342Z,9.55
2023-04-21T05:18:23.463Z,12.63
2023-04-21T05:19:26.081Z,11.90
2023-04-21T05:21:00.927Z,9.68
2023-04-21T05:22:14.090Z,8.85
2023-04-21T05:23:20.566Z,9.93
2023-04-21T05:24:33.724Z,11.75
2023-04-21T05:27:18.442Z,10.90
2023-04-21T05:28:20.339Z,11.20
2023-04-21T05:29:22.379Z,10.93
2023-04-21T05:30:24.511Z,9.93
2023-04-21T05:31:27.206Z,7.55
2023-04-21T05:32:31.478Z,11.82
2023-04-21T05:34:00.668Z,13.27
2023-04-21T05:35:07.856Z,11.43
2023-04-21T05:36:11.028Z,9.27
2023-04-21T05:38:08.094Z,12.60
2023-04-21T05:39:13.223Z,11.57
2023-04-21T05:43:53.037Z,10.82
2023-04-21T05:44:56.008Z,8.40
2023-04-21T05:46:09.284Z,10.10
2023-04-21T05:47:14.749Z,7.95
2023-04-21T05:48:41.821Z,10.40
2023-04-21T05:49:56.068Z,8.00
2023-04-21T05:51:20.262Z,9.32
2023-04-21T05:52:30.045Z,10.90
2023-04-21T05:54:59.046Z,10.75
2023-04-21T05:59:17.543Z,8.68
2023-04-21T06:00:19.870Z,12.48
2023-04-21T06:01:21.741Z,9.27
2023-04-21T06:02:23.846Z,8.32
2023-04-21T06:03:26.106Z,10.65
2023-04-21T06:04:33.973Z,9.98
2023-04-21T06:05:38.820Z,7.45
2023-04-21T06:06:40.769Z,11.35
2023-04-21T06:07:42.673Z,9.45
2023-04-21T06:08:44.658Z,10.30
2023-04-21T06:09:50.472Z,7.57
2023-04-21T06:10:53.197Z,9.52
2023-04-21T06:11:55.008Z,11.52
2023-04-21T06:12:57.249Z,8.10
2023-04-21T06:14:02.348Z,8.00
2023-04-21T06:15:05.165Z,8.20
2023-04-21T06:16:07.040Z,13.68
2023-04-21T06:17:12.228Z,7.32
2023-04-21T06:18:15.242Z,9.13
2023-04-21T06:19:17.364Z,9.50
2023-04-21T06:20:19.663Z,9.65
2023-04-21T06:21:21.545Z,10.48
2023-04-21T06:22:23.767Z,7.93
2023-04-21T06:23:25.880Z,7.60
2023-04-21T06:24:32.800Z,7.88
2023-04-21T06:25:36.523Z,11.52
2023-04-21T06:26:38.480Z,7.63
2023-04-21T06:27:40.820Z,10.00
2023-04-21T06:28:42.849Z,9.48
2023-04-21T06:29:45.457Z,9.65
2023-04-21T06:30:49.842Z,10.32
2023-04-21T06:31:52.953Z,7.32
2023-04-21T06:32:56.338Z,9.32
2023-04-21T06:33:58.449Z,8.00
2023-04-21T06:35:00.710Z,6.15
2023-04-21T06:36:08.127Z,9.20
2023-04-21T06:37:10.384Z,6.68
2023-04-21T06:40:56.888Z,5.15
2023-04-21T06:41:59.078Z,6.07
2023-04-21T06:43:02.864Z,5.45
2023-04-21T06:44:05.055Z,5.85
2023-04-21T06:45:07.715Z,5.47
2023-04-21T06:46:09.932Z,4.75
2023-04-21T06:47:13.804Z,7.38
2023-04-21T06:48:16.257Z,10.85
2023-04-21T06:49:21.877Z,5.63
2023-04-21T06:50:49.078Z,5.78
2023-04-21T06:51:53.345Z,5.55
2023-04-21T06:52:58.037Z,5.60
2023-04-21T06:54:02.229Z,5.03
2023-04-21T06:55:04.747Z,9.98
2023-04-21T06:56:07.324Z,5.72
2023-04-21T06:57:21.784Z,7.20
2023-04-21T06:58:23.922Z,6.15
2023-04-21T06:59:26.096Z,5.28
2023-04-21T07:00:29.247Z,6.78
2023-04-21T07:01:31.074Z,5.18
2023-04-21T07:02:33.129Z,4.47
2023-04-21T07:03:36.617Z,6.50
2023-04-21T07:04:38.730Z,6.93
2023-04-21T07:05:42.868Z,8.13
2023-04-21T07:06:44.934Z,5.20
2023-04-21T07:07:46.849Z,7.38
2023-04-21T07:08:48.902Z,6.72
2023-04-21T07:09:50.916Z,7.28
2023-04-21T07:10:53.218Z,5.80
2023-04-21T07:11:55.987Z,5.75
2023-04-21T07:12:58.054Z,5.03
2023-04-21T07:14:02.298Z,3.90
2023-04-21T07:15:05.515Z,7.70
2023-04-21T07:16:08.777Z,4.60
2023-04-21T07:17:11.156Z,7.10
2023-04-21T07:18:13.363Z,4.50
2023-04-21T07:19:16.566Z,7.15
2023-04-21T07:20:23.198Z,4.70
2023-04-21T07:21:26.062Z,4.78
2023-04-21T07:22:28.011Z,7.38
2023-04-21T07:23:29.917Z,6.38
2023-04-21T07:24:35.594Z,8.90
2023-04-21T07:25:39.821Z,5.15
2023-04-21T07:26:43.651Z,5.95
2023-04-21T07:27:45.869Z,5.68
2023-04-21T07:28:49.826Z,7.93
2023-04-21T07:29:52.006Z,6.32
2023-04-21T07:30:54.405Z,4.95
2023-04-21T07:31:58.644Z,6.10
2023-04-21T07:33:00.934Z,6.88
2023-04-21T07:34:02.985Z,5.28
2023-04-21T07:35:07.772Z,8.50
2023-04-21T07:36:11.666Z,5.68
2023-04-21T07:38:00.168Z,4.47
2023-04-21T07:39:02.241Z,6.45
2023-04-21T07:40:04.768Z,8.13
2023-04-21T07:41:07.205Z,7.47
2023-04-21T07:42:09.684Z,6.88
2023-04-21T07:43:11.685Z,4.80
2023-04-21T07:48:46.447Z,8.30
2023-04-21T07:49:51.589Z,7.95
2023-04-21T07:52:22.365Z,6.17
2023-04-21T07:53:28.037Z,4.97
2023-04-21T07:56:16.598Z,5.28
2023-04-21T07:57:34.520Z,4.82
2023-04-21T07:58:45.899Z,4.68
2023-04-21T07:59:48.451Z,5.95
2023-04-21T08:00:55.035Z,4.95
2023-04-21T08:01:58.790Z,10.35
2023-04-21T08:03:51.685Z,6.50
2023-04-21T08:10:39.217Z,6.65
2023-04-21T08:11:41.207Z,6.35
2023-04-21T08:12:44.712Z,6.15
2023-04-21T08:13:46.753Z,9.05
2023-04-21T08:14:52.095Z,9.65
2023-04-21T08:16:19.521Z,5.78
2023-04-21T08:17:22.011Z,5.50
2023-04-21T08:18:24.041Z,7.55
2023-04-21T08:19:28.254Z,9.40
2023-04-21T08:20:30.911Z,3.63
2023-04-21T08:21:34.216Z,5.18
2023-04-21T08:22:48.617Z,5.57
2023-04-21T08:23:52.154Z,8.82
2023-04-21T08:24:54.395Z,5.10
2023-04-21T08:26:02.158Z,7.68
2023-04-21T08:27:04.581Z,6.22
2023-04-21T08:28:06.682Z,4.10
2023-04-21T08:29:10.764Z,4.40
2023-04-21T08:30:13.377Z,5.00
2023-04-21T08:31:17.948Z,5.40
2023-04-21T08:32:24.779Z,5.90
2023-04-21T08:33:26.848Z,7.03
2023-04-21T08:34:30.144Z,4.00
2023-04-21T08:35:32.383Z,5.40
2023-04-21T08:36:35.453Z,4.78
2023-04-21T08:37:38.787Z,5.88
2023-04-21T08:38:44.502Z,5.38
2023-04-21T08:39:46.868Z,5.95
2023-04-21T08:40:50.801Z,6.57
2023-04-21T08:41:53.314Z,3.85
2023-04-21T08:42:58.113Z,4.30
2023-04-21T08:44:01.171Z,7.82
2023-04-21T08:45:04.555Z,5.57
2023-04-21T08:46:08.405Z,4.95
2023-04-21T08:47:13.953Z,5.18
2023-04-21T08:48:21.414Z,7.75
2023-04-21T08:49:36.919Z,6.30
2023-04-21T08:50:44.991Z,6.88
2023-04-21T08:51:47.816Z,5.32
2023-04-21T08:52:49.661Z,5.43
2023-04-21T08:53:52.272Z,7.57
2023-04-21T08:54:58.791Z,7.85
2023-04-21T08:57:15.796Z,7.15
2023-04-21T08:58:19.522Z,7.07
2023-04-21T08:59:27.408Z,5.93
2023-04-21T09:00:33.827Z,7.35
2023-04-21T09:02:15.757Z,4.25
2023-04-21T09:03:28.911Z,4.90
2023-04-21T09:04:41.285Z,4.30
2023-04-21T09:05:44.120Z,3.78
2023-04-21T09:06:46.540Z,5.28
2023-04-21T09:07:48.780Z,6.13
2023-04-21T09:09:10.045Z,4.93
2023-04-21T09:10:23.946Z,5.78
2023-04-21T09:11:33.891Z,8.35
2023-04-21T09:12:41.145Z,5.22
2023-04-21T09:13:44.376Z,5.85
2023-04-21T09:14:46.801Z,4.65
2023-04-21T09:15:54.996Z,4.10
2023-04-21T09:17:04.235Z,5.22
2023-04-21T09:18:16.076Z,4.97
2023-04-21T09:19:44.734Z,4.63
2023-04-21T09:20:49.555Z,5.22
2023-04-21T09:21:55.717Z,3.70
2023-04-21T09:23:06.030Z,3.50
2023-04-21T09:24:09.504Z,6.35
2023-04-21T09:25:16.892Z,6.43
2023-04-21T09:26:29.872Z,6.03
2023-04-21T09:27:35.485Z,4.13
2023-04-21T09:28:54.834Z,4.97
2023-04-21T09:51:36.888Z,3.78
2023-04-21T09:52:47.252Z,4.68
2023-04-21T09:53:53.482Z,4.88
2023-04-21T09:55:04.377Z,6.03
2023-04-21T09:56:15.035Z,6.28
2023-04-21T15:29:30.370Z,12.80
2023-04-21T18:11:33.910Z,9.65
2023-04-21T18:40:31.473Z,8.95
2023-04-21T18:46:26.858Z,7.82
2023-04-21T18:48:52.879Z,11.45
2023-04-21T18:51:01.046Z,9.00
2023-04-21T18:56:26.155Z,11.52
2023-04-21T18:57:37.760Z,6.53
2023-04-21T18:59:29.811Z,21.98
2023-04-21T19:01:31.967Z,7.60
